createdAt,value
2022-10-04T00:00:16.330Z,9
2022-10-04T00:05:16.499Z,9
2022-10-04T00:10:16.373Z,7
2022-10-04T00:15:16.393Z,6
2022-10-04T00:20:16.679Z,6
2022-10-04T00:25:16.356Z,7
2022-10-04T00:30:16.434Z,9
2022-10-04T00:35:16.415Z,7
2022-10-04T00:40:16.365Z,5
2022-10-04T00:45:16.556Z,5
2022-10-04T00:50:16.507Z,7
2022-10-04T00:55:16.497Z,9
2022-10-04T01:00:16.602Z,7
2022-10-04T01:05:16.545Z,10
2022-10-04T01:10:16.575Z,8
2022-10-04T01:15:16.646Z,9
2022-10-04T01:20:16.516Z,9
2022-10-04T01:25:16.520Z,7
2022-10-04T01:30:16.770Z,6
2022-10-04T01:35:16.616Z,8
2022-10-04T01:40:16.540Z,6
2022-10-04T01:45:16.555Z,7
2022-10-04T01:50:16.844Z,9
2022-10-04T01:55:16.593Z,9
2022-10-04T02:00:16.589Z,9
2022-10-04T02:05:16.637Z,6
2022-10-04T02:10:16.565Z,9
2022-10-04T02:15:16.859Z,9
2022-10-04T02:20:16.537Z,6
2022-10-04T02:25:16.739Z,7
2022-10-04T02:30:16.615Z,6
2022-10-04T02:35:16.669Z,9
2022-10-04T02:40:16.730Z,7
2022-10-04T02:45:16.720Z,6
2022-10-04T02:50:16.749Z,8
2022-10-04T02:55:16.662Z,8
2022-10-04T03:00:16.866Z,6
2022-10-04T03:05:16.892Z,7
2022-10-04T03:10:16.852Z,6
2022-10-04T03:15:16.714Z,8
2022-10-04T03:20:16.769Z,7
2022-10-04T03:25:16.733Z,8
2022-10-04T03:30:16.775Z,9
2022-10-04T03:35:16.842Z,7
2022-10-04T03:40:16.755Z,7
2022-10-04T03:45:16.807Z,7
2022-10-04T03:50:16.895Z,8
2022-10-04T03:55:16.780Z,7
2022-10-04T04:00:15.913Z,7
2022-10-04T04:05:15.906Z,6
2022-10-04T04:10:16.989Z,5
2022-10-04T04:15:15.966Z,8
2022-10-04T04:20:15.882Z,5
2022-10-04T04:25:15.912Z,6
2022-10-04T04:30:16.042Z,5
2022-10-04T04:35:15.957Z,5
2022-10-04T04:40:15.982Z,6
2022-10-04T04:45:16.050Z,4
2022-10-04T04:50:15.947Z,5
2022-10-04T04:55:16.010Z,8
2022-10-04T05:00:16.086Z,6
2022-10-04T05:05:15.962Z,6
2022-10-04T05:10:15.964Z,6
2022-10-04T05:15:15.979Z,6
2022-10-04T05:20:16.151Z,9
2022-10-04T05:25:16.140Z,9
2022-10-04T05:30:16.078Z,5
2022-10-04T05:35:16.271Z,7
2022-10-04T05:40:16.007Z,7
2022-10-04T05:45:16.099Z,7
2022-10-04T05:50:16.111Z,6
2022-10-04T05:55:16.069Z,6
2022-10-04T06:00:16.006Z,4
2022-10-04T06:05:16.082Z,5
2022-10-04T06:10:16.045Z,8
2022-10-04T06:15:16.105Z,4
2022-10-04T06:20:16.143Z,6
2022-10-04T06:25:16.383Z,5
2022-10-04T06:30:16.187Z,7
2022-10-04T06:35:16.196Z,6
2022-10-04T06:40:16.183Z,5
2022-10-04T06:45:16.183Z,6
2022-10-04T06:50:16.412Z,7
2022-10-04T06:55:16.357Z,8
2022-10-04T07:00:16.311Z,7
2022-10-04T07:05:16.182Z,7
2022-10-04T07:10:16.163Z,7
2022-10-04T07:15:16.201Z,8
2022-10-04T07:20:16.333Z,4
2022-10-04T07:25:16.274Z,6
2022-10-04T07:30:16.261Z,6
2022-10-04T07:35:16.377Z,8
2022-10-04T07:40:16.383Z,7
2022-10-04T07:45:16.247Z,7
2022-10-04T07:50:16.372Z,8
2022-10-04T07:55:16.319Z,8
2022-10-04T08:00:16.348Z,5
2022-10-04T08:05:16.274Z,8
2022-10-04T08:10:16.513Z,4
2022-10-04T08:15:16.553Z,6
2022-10-04T08:20:16.276Z,8
2022-10-04T08:25:16.314Z,7
2022-10-04T08:30:16.375Z,9
2022-10-04T08:35:16.493Z,8
2022-10-04T08:40:16.493Z,8
2022-10-04T08:45:16.369Z,6
2022-10-04T08:50:16.716Z,8
2022-10-04T08:55:16.439Z,8
2022-10-04T09:00:16.445Z,7
2022-10-04T09:05:16.387Z,7
2022-10-04T09:10:16.512Z,7
2022-10-04T09:15:16.615Z,6
2022-10-04T09:20:37.415Z,5
2022-10-04T09:25:16.716Z,8
2022-10-04T09:30:16.444Z,7
2022-10-04T09:35:16.520Z,6
2022-10-04T09:40:16.447Z,6
2022-10-04T09:45:16.629Z,5
2022-10-04T09:50:16.509Z,5
2022-10-04T09:55:16.571Z,9
2022-10-04T10:00:16.590Z,8
2022-10-04T10:05:16.588Z,6
2022-10-04T10:10:16.658Z,6
2022-10-04T10:15:16.626Z,6
2022-10-04T10:20:16.590Z,9
2022-10-04T10:25:16.637Z,8
2022-10-04T10:30:16.611Z,8
2022-10-04T10:35:16.684Z,8
2022-10-04T10:40:16.639Z,7
2022-10-04T10:45:16.773Z,9
2022-10-04T10:50:16.706Z,8
2022-10-04T10:55:16.724Z,9
2022-10-04T11:00:16.941Z,6
2022-10-04T11:05:16.735Z,7
2022-10-04T11:10:16.749Z,7
2022-10-04T11:15:17.000Z,9
2022-10-04T11:20:16.744Z,9
2022-10-04T11:25:16.686Z,8
2022-10-04T11:30:16.721Z,10
2022-10-04T11:35:16.759Z,9
2022-10-04T11:40:16.893Z,9
2022-10-04T11:45:16.737Z,10
2022-10-04T11:50:16.719Z,12
2022-10-04T11:55:17.059Z,9
2022-10-04T12:00:16.865Z,8
2022-10-04T12:05:16.766Z,9
2022-10-04T12:10:16.751Z,9
2022-10-04T12:15:16.882Z,10
2022-10-04T12:20:16.809Z,9
2022-10-04T12:25:16.820Z,11
2022-10-04T12:30:16.861Z,10
2022-10-04T12:35:16.867Z,10
2022-10-04T12:40:16.945Z,11
2022-10-04T12:45:16.922Z,7
2022-10-04T12:50:16.917Z,8
2022-10-04T12:55:17.017Z,9
2022-10-04T13:00:16.899Z,10
2022-10-04T13:05:17.055Z,10
2022-10-04T13:10:24.661Z,9
2022-10-04T13:15:16.941Z,10
2022-10-04T13:20:16.949Z,11
2022-10-04T13:25:16.965Z,9
2022-10-04T13:30:17.056Z,11
2022-10-04T13:35:20.474Z,11
2022-10-04T13:40:17.054Z,10
2022-10-04T13:45:17.017Z,10
2022-10-04T13:50:17.047Z,11
2022-10-04T13:55:17.009Z,10
2022-10-04T14:00:17.143Z,8
2022-10-04T14:05:17.397Z,9
2022-10-04T14:10:17.039Z,9
2022-10-04T14:15:18.230Z,9
2022-10-04T14:20:17.128Z,10
2022-10-04T14:25:21.224Z,8
2022-10-04T14:30:17.185Z,10
2022-10-04T14:35:17.126Z,10
2022-10-04T14:40:17.142Z,11
2022-10-04T14:45:17.310Z,9
2022-10-04T14:50:17.103Z,11
2022-10-04T14:55:17.167Z,11
2022-10-04T15:00:17.334Z,6
2022-10-04T15:05:17.410Z,11
2022-10-04T15:10:17.223Z,11
2022-10-04T15:15:17.147Z,12
2022-10-04T15:20:17.175Z,11
2022-10-04T15:25:17.171Z,10
2022-10-04T15:30:17.244Z,10
2022-10-04T15:35:17.170Z,12
2022-10-04T15:40:17.393Z,12
2022-10-04T15:45:17.373Z,10
2022-10-04T15:50:17.325Z,11
2022-10-04T15:55:17.275Z,10
2022-10-04T16:00:17.394Z,11
2022-10-04T16:05:17.335Z,9
2022-10-04T16:10:17.295Z,10
2022-10-04T16:15:17.475Z,12
2022-10-04T16:20:17.209Z,10
2022-10-04T16:25:17.318Z,9
2022-10-04T16:30:32.726Z,8
2022-10-04T16:35:17.304Z,7
2022-10-04T16:40:17.478Z,9
2022-10-04T16:45:17.494Z,9
2022-10-04T16:50:15.697Z,12
2022-10-04T16:55:15.412Z,9
2022-10-04T17:00:15.659Z,8
2022-10-04T17:05:15.374Z,12
2022-10-04T17:10:15.425Z,12
2022-10-04T17:15:15.429Z,12
2022-10-04T17:20:15.383Z,12
2022-10-04T17:25:15.465Z,10
2022-10-04T17:30:15.490Z,10
2022-10-04T17:35:15.607Z,8
2022-10-04T17:40:15.676Z,10
2022-10-04T17:45:15.561Z,13
2022-10-04T17:50:15.543Z,10
2022-10-04T17:55:15.547Z,10
2022-10-04T18:00:15.511Z,9
2022-10-04T18:05:15.702Z,10
2022-10-04T18:10:15.518Z,10
2022-10-04T18:15:15.573Z,12
2022-10-04T18:20:15.544Z,10
2022-10-04T18:25:15.799Z,8
2022-10-04T18:30:15.564Z,10
2022-10-04T18:35:15.587Z,12
2022-10-04T18:40:15.590Z,11
2022-10-04T18:45:15.627Z,9
2022-10-04T18:50:15.581Z,9
2022-10-04T18:55:15.658Z,9
2022-10-04T19:00:15.719Z,11
2022-10-04T19:05:15.791Z,12
2022-10-04T19:10:15.853Z,12
2022-10-04T19:15:15.796Z,13
2022-10-04T19:20:18.942Z,10
2022-10-04T19:25:15.895Z,11
2022-10-04T19:30:15.744Z,11
2022-10-04T19:35:15.733Z,11
2022-10-04T19:40:15.745Z,11
2022-10-04T19:45:15.709Z,11
2022-10-04T19:50:15.737Z,9
2022-10-04T19:55:15.766Z,11
2022-10-04T20:00:15.924Z,12
2022-10-04T20:05:15.913Z,9
2022-10-04T20:10:16.061Z,9
2022-10-04T20:15:15.850Z,9
2022-10-04T20:20:15.969Z,7
2022-10-04T20:25:15.814Z,10
2022-10-04T20:30:15.792Z,10
2022-10-04T20:35:16.175Z,11
2022-10-04T20:40:15.792Z,9
2022-10-04T20:45:15.873Z,11
2022-10-04T20:50:15.874Z,10
2022-10-04T20:55:15.997Z,11
2022-10-04T21:00:15.869Z,9
2022-10-04T21:05:15.966Z,10
2022-10-04T21:10:15.930Z,10
2022-10-04T21:15:16.199Z,10
2022-10-04T21:20:15.832Z,9
2022-10-04T21:25:15.898Z,9
2022-10-04T21:30:15.950Z,8
2022-10-04T21:35:15.952Z,9
2022-10-04T21:40:16.039Z,7
2022-10-04T21:45:16.053Z,10
2022-10-04T21:50:16.018Z,9
2022-10-04T21:55:16.013Z,8
2022-10-04T22:00:16.084Z,7
2022-10-04T22:05:16.088Z,8
2022-10-04T22:10:15.998Z,10
2022-10-04T22:15:16.285Z,8
2022-10-04T22:20:15.942Z,8
2022-10-04T22:25:16.168Z,9
2022-10-04T22:30:16.166Z,8
2022-10-04T22:35:16.087Z,8
2022-10-04T22:40:16.255Z,7
2022-10-04T22:45:16.129Z,8
2022-10-04T22:50:16.258Z,9
2022-10-04T22:55:16.169Z,9
2022-10-04T23:00:16.100Z,9
2022-10-04T23:05:16.281Z,10
2022-10-04T23:10:16.169Z,9
2022-10-04T23:15:16.390Z,8
2022-10-04T23:20:16.185Z,10
2022-10-04T23:25:16.224Z,11
2022-10-04T23:30:16.155Z,10
2022-10-04T23:35:16.160Z,8
2022-10-04T23:40:16.254Z,8
2022-10-04T23:45:16.228Z,7
2022-10-04T23:50:16.245Z,8
2022-10-04T23:55:16.394Z,9
